Time;durP1;ratioP1;P1;durP2;ratioP2;P2;SDS_P1;SDS_P2;PMS_P1;PMS_P2;Temp;Humidity;BMP_temperature;BMP_pressure;BME280_temperature;BME280_humidity;BME280_pressure;Samples;Min_cycle;Max_cycle;Signal;HPM_P1;HPM_P2
2023/08/29 00:01:19;;;;;;;1.42;0.55;;;;;;;26.72;49.79;99437.59;5045948;28;20421;-56
2023/08/29 00:03:47;;;;;;;2.72;0.98;;;;;;;26.74;49.50;99442.78;5051122;28;20064;-57
2023/08/29 00:06:14;;;;;;;2.78;1.13;;;;;;;26.75;49.50;99441.75;5038173;28;20142;-57
2023/08/29 00:08:42;;;;;;;3.03;0.80;;;;;;;26.74;49.45;99443.66;5043891;28;20056;-58
2023/08/29 00:11:09;;;;;;;2.85;1.08;;;;;;;26.76;49.57;99448.84;5045483;28;20060;-58
2023/08/29 00:13:37;;;;;;;2.50;0.82;;;;;;;26.78;49.44;99444.88;5036688;28;20049;-57
2023/08/29 00:16:05;;;;;;;2.13;0.98;;;;;;;26.78;49.40;99453.03;5047779;28;20049;-57
2023/08/29 00:18:32;;;;;;;1.77;0.75;;;;;;;26.79;49.51;99448.44;5041480;28;20049;-56
2023/08/29 00:21:00;;;;;;;1.88;0.60;;;;;;;26.80;49.23;99444.66;5039936;28;20399;-56
2023/08/29 00:23:27;;;;;;;2.70;0.95;;;;;;;26.81;49.28;99440.88;5048799;28;20045;-56
2023/08/29 00:25:54;;;;;;;2.40;1.00;;;;;;;26.81;49.25;99444.44;5037512;28;20063;-56
2023/08/29 00:28:23;;;;;;;2.47;1.10;;;;;;;26.82;48.98;99445.28;5044127;28;20052;-58
2023/08/29 00:30:50;;;;;;;2.05;1.10;;;;;;;26.82;49.33;99443.41;5032071;28;20518;-58
2023/08/29 00:33:18;;;;;;;1.63;0.60;;;;;;;26.83;49.31;99441.53;5049979;28;20064;-58
2023/08/29 00:35:48;;;;;;;2.63;0.50;;;;;;;26.84;48.99;99435.03;5032535;28;20056;-58
2023/08/29 00:38:16;;;;;;;2.40;0.73;;;;;;;26.84;49.28;99437.75;5034034;28;20052;-58
2023/08/29 00:40:44;;;;;;;1.63;0.65;;;;;;;26.84;49.26;99438.56;5039435;28;20042;-58
2023/08/29 00:43:11;;;;;;;1.55;0.63;;;;;;;26.87;48.83;99445.47;5048567;28;20071;-58
2023/08/29 00:45:39;;;;;;;2.03;0.52;;;;;;;26.87;49.16;99442.75;5032876;28;20052;-58
2023/08/29 00:48:08;;;;;;;2.78;0.73;;;;;;;26.88;48.80;99436.28;5050152;28;20518;-58
2023/08/29 00:50:37;;;;;;;1.80;0.50;;;;;;;26.89;49.07;99443.34;5038652;28;20491;-58
2023/08/29 00:53:06;;;;;;;1.10;0.40;;;;;;;26.89;49.08;99454.22;5031607;28;20057;-58
2023/08/29 00:55:34;;;;;;;1.55;0.70;;;;;;;26.91;49.00;99457.56;5033539;28;20057;-58
2023/08/29 00:58:03;;;;;;;1.63;0.68;;;;;;;26.91;49.11;99452.13;5033081;28;20050;-57
2023/08/29 01:00:32;;;;;;;2.17;0.70;;;;;;;26.92;49.33;99447.53;5049871;28;20052;-57
2023/08/29 01:03:02;;;;;;;1.42;0.55;;;;;;;26.92;49.07;99437.50;5034725;28;20060;-58
2023/08/29 01:05:32;;;;;;;0.80;0.30;;;;;;;26.94;48.92;99440.00;5035672;28;20052;-58
2023/08/29 01:08:02;;;;;;;1.48;0.40;;;;;;;26.93;48.70;99427.47;5036284;28;20049;-57
2023/08/29 01:10:57;;;;;;;1.23;0.50;;;;;;;26.95;48.86;99426.22;5034835;28;20054;-57
2023/08/29 01:13:48;;;;;;;1.13;0.43;;;;;;;26.95;49.11;99428.09;5051009;28;20056;-56
2023/08/29 01:16:21;;;;;;;1.35;0.30;;;;;;;26.95;49.11;99431.66;5023913;28;20435;-57
2023/08/29 01:18:51;;;;;;;1.38;0.50;;;;;;;26.96;49.16;99427.88;5034882;28;20056;-57
2023/08/29 01:21:47;;;;;;;1.92;0.60;;;;;;;26.96;49.05;99429.75;5053410;28;20076;-57
2023/08/29 01:24:30;;;;;;;1.23;0.50;;;;;;;26.96;49.10;99422.44;5040315;28;20403;-57
2023/08/29 01:27:00;;;;;;;1.17;0.40;;;;;;;26.97;49.08;99429.53;5034820;28;20057;-57
2023/08/29 01:29:28;;;;;;;1.45;0.65;;;;;;;26.96;48.85;99427.88;5036369;28;20054;-58
2023/08/29 01:31:57;;;;;;;0.82;0.40;;;;;;;26.97;49.12;99429.53;5036030;28;20396;-58
2023/08/29 01:34:25;;;;;;;1.98;0.60;;;;;;;26.98;49.08;99425.78;5035094;28;20049;-58
2023/08/29 01:36:53;;;;;;;0.90;0.35;;;;;;;26.99;48.82;99429.34;5035398;28;20057;-58
2023/08/29 01:39:21;;;;;;;0.75;0.30;;;;;;;26.99;48.79;99429.34;5034937;28;20056;-59
2023/08/29 01:41:48;;;;;;;2.35;0.50;;;;;;;26.99;48.81;99432.88;5035842;28;20038;-59
2023/08/29 01:44:15;;;;;;;1.35;0.38;;;;;;;27.01;48.86;99429.94;5037459;28;20049;-59
2023/08/29 01:46:43;;;;;;;1.55;0.50;;;;;;;27.00;48.82;99426.41;5049239;28;20045;-58
2023/08/29 01:49:11;;;;;;;1.67;0.40;;;;;;;27.02;48.88;99423.44;5045110;28;20503;-58
2023/08/29 01:51:39;;;;;;;0.70;0.20;;;;;;;27.02;48.96;99426.16;5052851;28;20056;-57
2023/08/29 01:54:06;;;;;;;0.95;0.40;;;;;;;27.02;49.02;99426.16;5038662;28;20049;-57
2023/08/29 01:56:39;;;;;;;1.52;0.40;;;;;;;27.02;48.88;99418.88;5053949;28;20045;-58
2023/08/29 01:59:08;;;;;;;0.57;0.20;;;;;;;27.02;48.91;99413.44;5042931;28;20412;-59
2023/08/29 02:01:36;;;;;;;0.35;0.17;;;;;;;27.03;49.05;99419.72;5048504;28;20056;-59
2023/08/29 02:04:03;;;;;;;1.65;0.30;;;;;;;27.03;49.06;99423.25;5037798;28;20060;-59
2023/08/29 02:06:31;;;;;;;0.85;0.40;;;;;;;27.03;48.65;99420.53;5047713;28;20049;-59
2023/08/29 02:08:58;;;;;;;2.38;0.65;;;;;;;27.04;48.94;99424.09;5044108;28;20053;-58
2023/08/29 02:11:26;;;;;;;1.50;0.30;;;;;;;27.03;48.75;99420.53;5040163;28;20040;-58
2023/08/29 02:13:57;;;;;;;0.77;0.30;;;;;;;27.04;49.04;99430.34;5038795;28;20061;-57
2023/08/29 02:16:25;;;;;;;1.30;0.40;;;;;;;27.04;48.86;99432.22;5046748;28;20602;-57
2023/08/29 02:18:53;;;;;;;1.35;0.52;;;;;;;27.04;48.83;99434.94;5045071;28;20053;-57
2023/08/29 02:21:20;;;;;;;1.20;0.47;;;;;;;27.05;48.72;99442.88;5039262;28;20053;-57
2023/08/29 02:23:47;;;;;;;0.70;0.30;;;;;;;27.06;48.67;99439.13;5050064;28;20049;-57
2023/08/29 02:26:15;;;;;;;0.98;0.40;;;;;;;27.05;48.83;99432.00;5040587;28;20049;-57
2023/08/29 02:28:42;;;;;;;0.60;0.22;;;;;;;27.04;48.99;99430.34;5042578;28;20053;-58
2023/08/29 02:31:10;;;;;;;1.27;0.52;;;;;;;27.06;48.88;99417.41;5034930;28;20037;-59
2023/08/29 02:33:38;;;;;;;1.40;0.40;;;;;;;27.06;48.72;99414.69;5034643;28;20064;-58
2023/08/29 02:36:06;;;;;;;0.68;0.20;;;;;;;27.06;48.88;99416.53;5051414;28;20057;-59
2023/08/29 02:38:34;;;;;;;1.33;0.30;;;;;;;27.07;48.64;99416.34;5042046;28;20053;-58
2023/08/29 02:41:02;;;;;;;0.57;0.30;;;;;;;27.07;48.70;99413.63;5034099;28;20045;-57
2023/08/29 02:43:29;;;;;;;1.48;0.60;;;;;;;27.08;48.98;99409.84;5034536;28;20503;-58
2023/08/29 02:45:58;;;;;;;1.27;0.43;;;;;;;27.09;48.74;99410.69;5033604;28;20515;-57
2023/08/29 02:48:27;;;;;;;1.42;0.50;;;;;;;27.09;48.98;99421.53;5050871;28;20053;-58
2023/08/29 02:50:54;;;;;;;1.17;0.40;;;;;;;27.09;48.83;99416.94;5037626;28;20056;-58
2023/08/29 02:53:22;;;;;;;1.35;0.50;;;;;;;27.09;48.78;99424.25;5034223;28;20049;-57
2023/08/29 02:55:51;;;;;;;1.05;0.32;;;;;;;27.09;49.00;99430.53;5034196;28;20050;-57
2023/08/29 02:58:21;;;;;;;0.82;0.32;;;;;;;27.10;48.95;99420.50;5034731;28;20056;-59
2023/08/29 03:00:58;;;;;;;0.98;0.50;;;;;;;27.09;48.74;99432.41;5033545;28;20049;-59
2023/08/29 03:03:26;;;;;;;3.72;0.50;;;;;;;27.10;49.06;99425.94;5058415;28;20060;-59
2023/08/29 03:05:55;;;;;;;1.75;0.80;;;;;;;27.10;48.99;99426.81;5033118;28;20054;-58
2023/08/29 03:08:24;;;;;;;1.38;0.50;;;;;;;27.10;48.69;99440.38;5032629;28;20045;-59
2023/08/29 03:10:52;;;;;;;1.98;0.45;;;;;;;27.11;48.87;99436.63;5034432;28;20045;-59
2023/08/29 03:13:21;;;;;;;1.33;0.40;;;;;;;27.11;49.00;99438.50;5032669;28;20046;-58
2023/08/29 03:15:49;;;;;;;0.93;0.40;;;;;;;27.10;48.95;99424.09;5043960;28;20049;-59
2023/08/29 03:18:17;;;;;;;1.67;0.35;;;;;;;27.11;48.75;99433.06;5037384;28;20053;-58
2023/08/29 03:20:45;;;;;;;1.58;0.57;;;;;;;27.11;48.77;99435.78;5048014;28;20064;-58
2023/08/29 03:23:12;;;;;;;0.77;0.20;;;;;;;27.10;48.86;99440.38;5038108;28;20056;-59
2023/08/29 03:25:40;;;;;;;1.00;0.35;;;;;;;27.10;48.76;99443.09;5042995;28;20049;-58
2023/08/29 03:28:08;;;;;;;1.13;0.30;;;;;;;27.10;48.97;99440.38;5046919;28;20036;-58
2023/08/29 03:30:36;;;;;;;0.95;0.40;;;;;;;27.10;48.73;99434.97;5036126;28;20053;-57
2023/08/29 03:33:03;;;;;;;1.02;0.38;;;;;;;27.11;48.85;99436.63;5045186;28;20049;-57
2023/08/29 03:35:31;;;;;;;1.10;0.40;;;;;;;27.10;48.55;99434.97;5042425;28;20060;-57
2023/08/29 03:37:59;;;;;;;0.95;0.43;;;;;;;27.10;48.44;99432.25;5037561;28;20423;-58
2023/08/29 03:40:26;;;;;;;0.90;0.30;;;;;;;27.10;48.54;99418.66;5033891;28;20048;-59
2023/08/29 03:42:54;;;;;;;0.40;0.15;;;;;;;27.11;48.62;99419.50;5033319;28;20488;-59
2023/08/29 03:45:21;;;;;;;1.50;0.35;;;;;;;27.10;48.59;99423.22;5032117;28;20412;-58
2023/08/29 03:47:49;;;;;;;0.55;0.20;;;;;;;27.10;48.54;99424.09;5031882;28;20507;-58
2023/08/29 03:50:17;;;;;;;1.20;0.40;;;;;;;27.10;48.38;99418.66;5035750;28;20054;-57
2023/08/29 03:52:48;;;;;;;1.10;0.30;;;;;;;27.10;48.40;99424.09;5032328;28;20057;-57
2023/08/29 03:55:15;;;;;;;0.82;0.35;;;;;;;27.10;48.07;99412.38;5037892;28;20045;-57
2023/08/29 03:57:43;;;;;;;0.88;0.20;;;;;;;27.10;48.05;99418.66;5037522;28;20045;-58
2023/08/29 04:00:11;;;;;;;0.47;0.20;;;;;;;27.10;48.05;99407.78;5035069;28;20053;-59
2023/08/29 04:02:42;;;;;;;0.90;0.30;;;;;;;27.10;48.16;99407.78;5051443;28;20045;-58
2023/08/29 04:05:14;;;;;;;0.80;0.25;;;;;;;27.10;47.88;99415.94;5042964;28;20538;-58
2023/08/29 04:07:42;;;;;;;0.50;0.20;;;;;;;27.11;48.01;99411.34;5032562;28;20064;-58
2023/08/29 04:10:12;;;;;;;0.88;0.28;;;;;;;27.11;47.69;99409.44;5032696;28;20041;-58
2023/08/29 04:12:40;;;;;;;1.67;0.20;;;;;;;27.10;47.99;99405.06;5033491;28;20042;-59
2023/08/29 04:15:08;;;;;;;1.75;0.20;;;;;;;27.10;47.96;99412.38;5032225;28;20046;-59
2023/08/29 04:17:35;;;;;;;0.22;0.10;;;;;;;27.10;47.89;99415.09;5033760;28;20423;-59
2023/08/29 04:20:08;;;;;;;0.60;0.20;;;;;;;27.10;47.63;99418.66;5033808;28;20058;-59
2023/08/29 04:22:35;;;;;;;0.50;0.10;;;;;;;27.10;47.61;99418.66;5031736;28;20068;-59
2023/08/29 04:25:04;;;;;;;0.65;0.20;;;;;;;27.10;47.93;99413.22;5047537;28;20053;-58
2023/08/29 04:27:31;;;;;;;0.32;0.10;;;;;;;27.10;47.73;99420.50;5036490;28;20061;-58
2023/08/29 04:29:59;;;;;;;0.70;0.17;;;;;;;27.10;47.87;99415.94;5033005;28;20526;-58
2023/08/29 04:32:26;;;;;;;0.90;0.30;;;;;;;27.09;47.87;99419.66;5032917;28;20045;-59
2023/08/29 04:34:53;;;;;;;0.70;0.20;;;;;;;27.10;48.05;99428.66;5033596;28;20053;-59
2023/08/29 04:37:21;;;;;;;0.93;0.30;;;;;;;27.09;48.34;99433.25;5046670;28;20057;-58
2023/08/29 04:39:48;;;;;;;0.82;0.30;;;;;;;27.09;48.14;99438.66;5036645;28;20056;-58
2023/08/29 04:42:16;;;;;;;0.98;0.30;;;;;;;27.08;48.34;99434.28;5036318;28;20060;-62
2023/08/29 04:44:44;;;;;;;1.05;0.20;;;;;;;27.03;47.99;99436.84;5033834;28;20053;-62
2023/08/29 04:47:14;;;;;;;1.77;0.68;;;;;;;26.98;48.17;99438.50;5040543;28;20049;-63
2023/08/29 04:49:42;;;;;;;1.38;0.40;;;;;;;26.91;48.31;99443.16;5051026;28;20052;-62
2023/08/29 04:52:10;;;;;;;1.80;0.40;;;;;;;26.86;48.13;99449.25;5036242;28;20077;-62
2023/08/29 04:54:37;;;;;;;0.70;0.40;;;;;;;26.83;48.47;99447.78;5046039;28;20056;-61
2023/08/29 04:57:05;;;;;;;1.48;0.57;;;;;;;26.78;48.13;99446.72;5040039;28;20530;-63
2023/08/29 04:59:33;;;;;;;0.80;0.30;;;;;;;26.74;48.43;99445.50;5050689;28;20931;-62
2023/08/29 05:02:01;;;;;;;1.70;0.30;;;;;;;26.71;48.50;99440.53;5040403;28;20049;-62
2023/08/29 05:04:28;;;;;;;3.30;0.47;;;;;;;26.67;48.42;99439.28;5047957;28;20044;-62
2023/08/29 05:06:55;;;;;;;1.25;0.30;;;;;;;26.62;48.46;99440.75;5039547;28;20064;-62
2023/08/29 05:09:24;;;;;;;1.17;0.30;;;;;;;26.59;48.51;99443.88;5050320;28;20053;-62
2023/08/29 05:11:51;;;;;;;0.98;0.30;;;;;;;26.57;48.54;99443.25;5043480;28;20480;-63
2023/08/29 05:14:19;;;;;;;1.88;0.40;;;;;;;26.56;48.89;99449.72;5042635;28;20056;-63
2023/08/29 05:16:46;;;;;;;1.52;0.50;;;;;;;26.54;48.64;99441.00;5050414;28;20041;-63
2023/08/29 05:19:14;;;;;;;1.63;0.65;;;;;;;26.53;48.85;99452.03;5039127;28;20053;-62
2023/08/29 05:21:41;;;;;;;1.88;0.40;;;;;;;26.51;48.77;99451.44;5048706;28;20068;-62
2023/08/29 05:24:10;;;;;;;1.58;0.40;;;;;;;26.49;48.88;99450.78;5046009;28;20060;-61
2023/08/29 05:26:37;;;;;;;2.13;0.40;;;;;;;26.47;48.97;99453.72;5039179;28;20056;-62
2023/08/29 05:29:05;;;;;;;2.42;0.75;;;;;;;26.45;48.89;99453.09;5050859;28;20495;-62
2023/08/29 05:31:32;;;;;;;1.45;0.60;;;;;;;26.47;49.07;99452.91;5042993;28;20049;-62
2023/08/29 05:33:59;;;;;;;1.63;0.43;;;;;;;26.47;49.24;99458.34;5043980;28;20045;-62
2023/08/29 05:36:27;;;;;;;1.92;0.50;;;;;;;26.46;49.18;99452.06;5049967;28;20116;-62
2023/08/29 05:38:54;;;;;;;2.45;0.45;;;;;;;26.46;48.98;99456.66;5040157;28;20057;-62
2023/08/29 05:41:22;;;;;;;1.77;0.38;;;;;;;26.44;49.03;99456.84;5048117;28;20041;-62
2023/08/29 05:43:49;;;;;;;1.38;0.30;;;;;;;26.42;49.06;99453.50;5035379;28;20048;-62
2023/08/29 05:46:16;;;;;;;1.05;0.43;;;;;;;26.42;49.34;99458.09;5036240;28;20050;-62
2023/08/29 05:48:44;;;;;;;1.73;0.70;;;;;;;26.38;49.07;99453.09;5036024;28;20042;-61
2023/08/29 05:51:11;;;;;;;1.42;0.40;;;;;;;26.38;49.17;99454.97;5034842;28;20052;-62
2023/08/29 05:53:38;;;;;;;0.85;0.30;;;;;;;26.37;49.26;99454.16;5035523;28;20495;-62
2023/08/29 05:56:06;;;;;;;0.80;0.47;;;;;;;26.37;49.42;99450.56;5041837;28;20049;-62
2023/08/29 05:58:33;;;;;;;1.65;0.50;;;;;;;26.35;49.28;99448.09;5035217;28;20046;-62
2023/08/29 06:01:00;;;;;;;1.73;0.40;;;;;;;26.33;49.18;99450.19;5035547;28;20037;-62
2023/08/29 06:03:28;;;;;;;0.95;0.30;;;;;;;26.31;49.59;99451.44;5035540;28;20045;-62
2023/08/29 06:05:55;;;;;;;1.27;0.50;;;;;;;26.30;49.69;99447.91;5035861;28;20068;-62
2023/08/29 06:08:23;;;;;;;1.60;0.60;;;;;;;26.29;49.95;99457.09;5035457;28;20050;-63
2023/08/29 06:10:50;;;;;;;1.50;0.40;;;;;;;26.30;49.99;99453.31;5035390;28;20056;-62
2023/08/29 06:13:18;;;;;;;0.68;0.20;;;;;;;26.30;50.08;99458.75;5035067;28;20049;-60
2023/08/29 06:15:45;;;;;;;1.55;0.50;;;;;;;26.29;50.05;99461.66;5043445;28;20071;-61
2023/08/29 06:18:12;;;;;;;1.77;0.40;;;;;;;26.29;50.09;99461.66;5037651;28;20049;-61
2023/08/29 06:20:40;;;;;;;0.82;0.20;;;;;;;26.28;50.00;99468.97;5035065;28;20049;-62
2023/08/29 06:23:07;;;;;;;0.75;0.30;;;;;;;26.28;50.00;99465.41;5035008;28;20431;-62
2023/08/29 06:25:35;;;;;;;1.33;0.50;;;;;;;26.28;50.05;99465.41;5042337;28;20048;-63
2023/08/29 06:28:03;;;;;;;1.23;0.30;;;;;;;26.30;50.14;99464.16;5039535;28;20399;-64
2023/08/29 06:30:31;;;;;;;1.27;0.47;;;;;;;26.35;49.96;99469.78;5034968;28;20045;-63
2023/08/29 06:32:58;;;;;;;2.03;0.63;;;;;;;26.38;49.87;99468.53;5040585;28;20041;-65
2023/08/29 06:35:26;;;;;;;0.82;0.28;;;;;;;26.42;49.69;99479.81;5035377;28;20046;-61
2023/08/29 06:37:55;;;;;;;1.02;0.38;;;;;;;26.42;49.65;99479.81;5035132;28;20076;-61
2023/08/29 06:40:22;;;;;;;2.13;0.30;;;;;;;26.44;49.73;99477.72;5036081;28;20483;-57
2023/08/29 06:42:50;;;;;;;1.52;0.30;;;;;;;26.43;49.59;99478.75;5037955;28;20048;-58
2023/08/29 06:45:17;;;;;;;2.83;0.30;;;;;;;26.42;49.62;99477.09;5037103;28;20052;-61
2023/08/29 06:47:44;;;;;;;1.50;0.35;;;;;;;26.42;49.61;99479.81;5036638;28;20053;-64
2023/08/29 06:50:12;;;;;;;1.05;0.25;;;;;;;26.41;49.72;99484.38;5047711;28;20049;-64
2023/08/29 06:52:39;;;;;;;0.98;0.30;;;;;;;26.40;49.89;99485.44;5044353;28;20052;-64
2023/08/29 06:55:09;;;;;;;2.83;0.50;;;;;;;26.39;49.97;99489.19;5039543;28;20046;-63
2023/08/29 06:57:37;;;;;;;2.95;0.50;;;;;;;26.38;49.75;99490.25;5049769;28;20407;-58
2023/08/29 07:00:04;;;;;;;0.57;0.20;;;;;;;26.39;49.60;99500.06;5034876;28;20045;-60
2023/08/29 07:02:32;;;;;;;1.13;0.50;;;;;;;26.37;49.54;99494.00;5046503;28;20057;-58
2023/08/29 07:04:59;;;;;;;1.77;0.30;;;;;;;26.38;49.51;99495.69;5034253;28;20411;-56
2023/08/29 07:07:26;;;;;;;0.95;0.25;;;;;;;26.38;49.42;99487.53;5034322;28;20407;-59
2023/08/29 07:09:54;;;;;;;2.00;0.63;;;;;;;26.38;49.44;99496.50;5034132;28;20049;-58
2023/08/29 07:12:22;;;;;;;1.23;0.50;;;;;;;26.37;49.53;99497.56;5033988;28;20049;-60
2023/08/29 07:14:49;;;;;;;1.10;0.35;;;;;;;26.37;49.52;99497.56;5033733;28;20057;-58
2023/08/29 07:17:17;;;;;;;1.30;0.50;;;;;;;26.31;49.30;99505.69;5034091;28;20053;-57
2023/08/29 07:19:44;;;;;;;1.30;0.47;;;;;;;26.02;49.71;99499.66;5041735;28;20049;-59
2023/08/29 07:22:12;;;;;;;1.30;0.60;;;;;;;25.70;50.15;99503.97;5034173;28;20050;-58
2023/08/29 07:24:43;;;;;;;2.63;0.73;;;;;;;25.51;50.59;99511.00;5034111;28;20041;-61
2023/08/29 07:27:11;;;;;;;3.28;0.63;;;;;;;25.32;51.29;99517.19;5033657;28;20062;-52
2023/08/29 07:29:38;;;;;;;1.38;0.60;;;;;;;25.23;51.40;99508.41;5037793;28;20045;-59
2023/08/29 07:32:05;;;;;;;1.20;0.50;;;;;;;25.26;51.34;99515.31;5033865;28;20049;-59
2023/08/29 07:34:34;;;;;;;3.67;0.45;;;;;;;25.30;51.33;99511.16;5033301;28;20045;-53
2023/08/29 07:37:02;;;;;;;1.75;0.57;;;;;;;25.33;51.25;99511.59;5032977;28;20061;-58
2023/08/29 07:39:30;;;;;;;1.45;0.57;;;;;;;25.32;51.53;99512.63;5033778;28;20056;-59
2023/08/29 07:41:57;;;;;;;3.63;0.98;;;;;;;25.30;51.34;99519.28;5038253;28;20053;-60
2023/08/29 07:44:24;;;;;;;1.77;0.40;;;;;;;25.29;51.61;99518.44;5035068;28;20064;-57
2023/08/29 07:46:52;;;;;;;1.48;0.52;;;;;;;25.35;51.43;99525.75;5033842;28;20420;-58
2023/08/29 07:49:39;;;;;;;1.27;0.45;;;;;;;25.47;51.35;99522.44;5033646;28;20045;-53
2023/08/29 07:52:06;;;;;;;1.15;0.43;;;;;;;25.56;51.06;99519.38;5037147;28;20056;-59
2023/08/29 07:54:34;;;;;;;1.52;0.45;;;;;;;25.67;50.86;99530.63;5035667;28;20041;-59
2023/08/29 07:57:01;;;;;;;2.38;0.60;;;;;;;25.73;50.90;99525.25;5037302;28;20053;-59
2023/08/29 07:59:28;;;;;;;1.25;0.28;;;;;;;25.81;50.68;99524.25;5037839;28;20053;-60
2023/08/29 08:01:56;;;;;;;1.98;0.60;;;;;;;25.85;50.54;99523.63;5041130;28;20049;-59
2023/08/29 08:04:23;;;;;;;2.08;0.80;;;;;;;25.92;50.41;99525.50;5035828;28;20041;-59
2023/08/29 08:06:51;;;;;;;2.10;0.57;;;;;;;25.98;50.46;99532.81;5050573;28;20052;-49
2023/08/29 08:09:19;;;;;;;2.13;0.50;;;;;;;25.96;50.18;99535.72;5034101;28;20057;-60
2023/08/29 08:11:47;;;;;;;2.30;0.70;;;;;;;25.95;50.40;99534.06;5034156;28;20049;-54
2023/08/29 08:14:17;;;;;;;1.98;0.70;;;;;;;25.95;50.37;99530.50;5033802;28;20400;-59
2023/08/29 08:16:44;;;;;;;1.70;0.68;;;;;;;25.98;50.55;99540.97;5045620;28;20045;-58
2023/08/29 08:19:12;;;;;;;1.70;0.63;;;;;;;26.01;50.49;99533.25;5037304;28;20052;-51
2023/08/29 08:21:40;;;;;;;2.97;0.70;;;;;;;26.04;50.44;99534.69;5043017;28;20053;-60
2023/08/29 08:24:08;;;;;;;1.42;0.43;;;;;;;26.07;50.42;99535.13;5036953;28;20057;-59
2023/08/29 08:26:35;;;;;;;2.10;0.60;;;;;;;26.11;50.28;99546.38;5037362;28;20397;-58
2023/08/29 08:29:04;;;;;;;2.08;0.70;;;;;;;26.13;50.10;99547.03;5037420;28;20045;-60
2023/08/29 08:31:32;;;;;;;2.70;0.63;;;;;;;26.16;50.17;99551.19;5050772;28;20419;-59
2023/08/29 08:34:00;;;;;;;2.88;0.77;;;;;;;26.16;50.33;99551.19;5037384;28;20064;-59
2023/08/29 08:36:28;;;;;;;2.67;0.82;;;;;;;26.18;50.19;99543.69;5039726;28;20070;-59
2023/08/29 08:38:56;;;;;;;2.28;0.60;;;;;;;26.18;50.24;99541.81;5040865;28;20041;-49
2023/08/29 08:41:24;;;;;;;2.30;0.90;;;;;;;26.21;50.21;99548.69;5041486;28;20427;-49
2023/08/29 08:43:51;;;;;;;1.80;0.57;;;;;;;26.22;50.31;99544.94;5036389;28;20494;-51
2023/08/29 08:46:19;;;;;;;2.80;0.70;;;;;;;26.23;50.11;99552.88;5036133;28;20048;-49
2023/08/29 08:48:47;;;;;;;1.65;0.70;;;;;;;26.24;50.19;99554.53;5046831;28;20052;-51
2023/08/29 08:51:16;;;;;;;1.67;0.50;;;;;;;26.27;50.17;99553.28;5050089;28;20052;-60
2023/08/29 08:53:43;;;;;;;2.88;0.60;;;;;;;26.26;50.27;99560.59;5040611;28;20048;-60
2023/08/29 08:56:11;;;;;;;2.17;0.60;;;;;;;26.28;50.20;99573.94;5048913;28;20050;-58
2023/08/29 08:58:38;;;;;;;2.17;0.68;;;;;;;26.29;50.18;99565.59;5035893;28;20380;-60
2023/08/29 09:01:05;;;;;;;1.40;0.52;;;;;;;26.30;50.23;99566.44;5036374;28;20052;-59
2023/08/29 09:03:34;;;;;;;2.20;0.80;;;;;;;26.30;50.28;99577.28;5048755;28;20041;-49
2023/08/29 09:06:02;;;;;;;1.13;0.45;;;;;;;26.31;50.23;99565.38;5036333;28;20492;-49
2023/08/29 09:08:34;;;;;;;3.07;0.83;;;;;;;26.31;50.36;99576.25;5036806;28;20060;-60
2023/08/29 09:11:01;;;;;;;2.05;0.77;;;;;;;26.33;50.37;99574.13;5036147;28;20042;-61
2023/08/29 09:13:30;;;;;;;1.70;0.70;;;;;;;26.33;50.16;99558.72;5036489;28;20045;-61
2023/08/29 09:15:59;;;;;;;1.17;0.38;;;;;;;26.32;50.44;99575.19;5043492;28;20048;-59
2023/08/29 09:18:29;;;;;;;2.50;0.80;;;;;;;26.30;50.43;99561.84;5043737;28;20045;-52
2023/08/29 09:21:00;;;;;;;1.35;0.45;;;;;;;26.33;50.43;99574.13;5051287;28;20467;-50
2023/08/29 09:23:29;;;;;;;1.77;0.67;;;;;;;26.30;50.60;99572.69;5040707;28;20053;-50
2023/08/29 09:25:59;;;;;;;1.88;0.57;;;;;;;26.32;50.43;99575.19;5044751;28;20046;-51
2023/08/29 09:28:29;;;;;;;2.25;0.80;;;;;;;26.33;50.63;99568.72;5049001;28;20057;-61
2023/08/29 09:31:05;;;;;;;2.63;0.65;;;;;;;26.34;50.53;99571.25;5039553;28;20056;-62
2023/08/29 09:33:34;;;;;;;1.77;0.40;;;;;;;26.34;50.47;99571.25;5048065;28;20053;-51
2023/08/29 09:36:02;;;;;;;2.22;0.70;;;;;;;26.33;50.38;99569.56;5046461;28;20049;-60
2023/08/29 09:38:34;;;;;;;1.73;0.70;;;;;;;26.34;50.56;99573.94;5040624;28;20080;-59
2023/08/29 09:41:02;;;;;;;1.70;0.68;;;;;;;26.35;50.55;99588.34;5050878;28;20049;-58
2023/08/29 09:43:29;;;;;;;1.45;0.57;;;;;;;26.35;50.54;99594.59;5043366;28;20049;-59
2023/08/29 09:45:58;;;;;;;2.85;0.50;;;;;;;26.36;50.56;99598.16;5042616;28;20041;-59
2023/08/29 09:48:27;;;;;;;1.17;0.40;;;;;;;26.36;50.43;99598.16;5035508;28;20041;-54
2023/08/29 09:50:58;;;;;;;2.53;0.68;;;;;;;26.35;50.48;99602.75;5050762;28;20056;-49
2023/08/29 09:53:28;;;;;;;1.67;0.60;;;;;;;26.36;50.49;99595.44;5043470;28;20056;-49
2023/08/29 09:56:05;;;;;;;1.90;0.55;;;;;;;26.37;50.55;99595.25;5042989;28;20053;-52
2023/08/29 09:58:33;;;;;;;1.83;0.70;;;;;;;26.38;50.52;99593.38;5046413;28;20053;-48
2023/08/29 10:01:04;;;;;;;1.30;0.50;;;;;;;26.38;50.56;99598.78;5048764;28;20053;-57
2023/08/29 10:03:34;;;;;;;1.30;0.57;;;;;;;26.38;50.74;99605.06;5045238;28;20049;-50
2023/08/29 10:06:07;;;;;;;1.95;0.90;;;;;;;26.39;51.06;99604.00;5035052;28;20048;-50
2023/08/29 10:08:44;;;;;;;0.70;0.35;;;;;;;26.39;50.76;99595.84;5049950;28;20053;-48
2023/08/29 10:11:11;;;;;;;1.58;0.88;;;;;;;26.40;50.87;99602.13;5043821;28;20483;-56
2023/08/29 10:13:41;;;;;;;1.23;0.50;;;;;;;26.42;50.69;99604.66;5041957;28;20048;-57
2023/08/29 10:16:09;;;;;;;1.27;0.55;;;;;;;26.41;50.64;99600.25;5048949;28;20049;-51
2023/08/29 10:18:38;;;;;;;3.95;1.05;;;;;;;26.41;50.79;99598.34;5035295;28;20057;-52
2023/08/29 10:21:05;;;;;;;4.10;1.15;;;;;;;26.40;50.94;99607.53;5043919;28;20045;-53
2023/08/29 10:23:35;;;;;;;3.13;0.93;;;;;;;26.40;51.10;99596.69;5041404;28;20053;-54
2023/08/29 10:26:02;;;;;;;2.72;0.80;;;;;;;26.41;51.02;99603.78;5050351;28;20045;-53
2023/08/29 10:28:31;;;;;;;2.67;0.68;;;;;;;26.41;51.34;99594.81;5034846;28;20045;-54
2023/08/29 10:31:01;;;;;;;1.58;0.70;;;;;;;26.41;51.38;99598.34;5035042;28;20053;-53
2023/08/29 10:33:29;;;;;;;3.03;1.15;;;;;;;26.42;51.20;99600.03;5040973;28;20060;-48
2023/08/29 10:35:57;;;;;;;2.17;0.90;;;;;;;26.42;51.45;99586.47;5038615;28;20049;-54
2023/08/29 10:38:26;;;;;;;1.75;0.57;;;;;;;26.42;51.32;99593.78;5034097;28;20415;-49
2023/08/29 10:41:06;;;;;;;1.17;0.57;;;;;;;26.41;51.43;99598.34;5035331;28;20052;-50
2023/08/29 10:43:35;;;;;;;3.00;0.90;;;;;;;26.42;51.57;99597.34;5034728;28;20052;-56
2023/08/29 10:46:11;;;;;;;3.78;0.80;;;;;;;26.42;51.50;99597.34;5034102;28;20052;-54
2023/08/29 10:48:39;;;;;;;2.70;1.30;;;;;;;26.43;51.70;99596.28;5033280;28;20079;-57
2023/08/29 10:51:14;;;;;;;1.88;0.70;;;;;;;26.43;51.69;99587.31;5041041;28;20045;-61
2023/08/29 10:53:53;;;;;;;2.05;0.77;;;;;;;26.44;51.62;99589.81;5049501;28;20055;-59
2023/08/29 10:56:26;;;;;;;2.55;0.77;;;;;;;26.44;51.76;99597.94;5041440;28;20894;-60
2023/08/29 10:58:55;;;;;;;3.65;0.68;;;;;;;26.43;51.73;99588.16;5041478;28;20045;-51
2023/08/29 11:01:26;;;;;;;2.35;0.80;;;;;;;26.46;51.90;99589.66;5049471;28;20044;-48
2023/08/29 11:04:11;;;;;;;2.05;0.65;;;;;;;26.47;51.83;99588.59;5045752;28;20049;-50
2023/08/29 11:06:54;;;;;;;1.42;0.50;;;;;;;26.47;51.96;99586.72;5044709;28;20041;-50
2023/08/29 11:09:23;;;;;;;2.03;0.60;;;;;;;26.48;51.92;99577.53;5036551;28;20049;-58
2023/08/29 11:12:10;;;;;;;1.77;0.40;;;;;;;26.49;51.83;99576.47;5047575;28;20056;-60
2023/08/29 11:14:56;;;;;;;1.50;0.60;;;;;;;26.50;51.92;99572.72;5045528;28;20049;-60
2023/08/29 11:17:25;;;;;;;1.83;0.85;;;;;;;26.50;52.06;99574.63;5037859;28;20061;-49
2023/08/29 11:20:05;;;;;;;2.63;0.70;;;;;;;26.50;51.84;99569.19;5045857;28;20053;-49
2023/08/29 11:22:33;;;;;;;2.45;0.50;;;;;;;26.51;52.00;99568.97;5045825;28;20387;-59
2023/08/29 11:25:00;;;;;;;1.63;0.32;;;;;;;26.51;52.05;99568.97;5037354;28;20048;-57
2023/08/29 11:27:36;;;;;;;1.95;0.70;;;;;;;26.50;52.11;99571.91;5048520;28;20070;-54
2023/08/29 11:30:04;;;;;;;2.70;0.98;;;;;;;26.48;52.67;99573.97;5043454;28;20045;-54
2023/08/29 11:32:51;;;;;;;2.92;1.00;;;;;;;26.40;52.61;99577.69;5034419;28;20064;-52
2023/08/29 11:35:20;;;;;;;2.75;1.15;;;;;;;26.33;52.56;99571.44;5047887;28;20068;-53
2023/08/29 11:37:50;;;;;;;2.90;1.10;;;;;;;26.27;52.56;99580.41;5042571;28;20454;-57
2023/08/29 11:40:21;;;;;;;3.55;1.08;;;;;;;26.19;53.13;99578.72;5040658;28;20049;-58
2023/08/29 11:42:57;;;;;;;2.38;0.93;;;;;;;26.14;53.22;99578.53;5048509;28;20048;-58